Scottsdale Airport

About
Name: Scottsdale Airport
Identifier:  SCF/KSDL
Serves:  Scottsdale, Arizona
Owner:  City of Scottsdale
Public/Private:  Public
Local Time:  18. Sep 11:55 MST
Description: Scottsdale Airport is 9 miles north of downtown Scottsdale, in Maricopa County, Arizona. Most U.S. airports use the same three-letter location identifier for the FAA and IATA, but Scottsdale Airport is SDL to the FAA and SCF to the IATA.[3]
Source: Wikipedia
Location
Runways
Identifier Length (m/ft) Surface
3/21 8,249/8,249 Asphalt
Statistics
Flights per Day:
0 flights
Distance: 883km (549mi)
Flights delayed:
50% (0 flights per day delayed)
Delay Average: 42 minutes
Current Weather
 33 C (Humidity: 29%)
  5kt (9km/h / 5mph) from 160°
  16km (10 mi.)
 
 METAR KSDL 181753Z 16005KT 10SM CLR 33/13 A2992 RMK AO2 SLP103 T03280128 10333 20250 50003

Current Delays

Departures
N/A
Arrivals
N/A

Destinations

Top Destinations
Airport Flights
per week
Seats
per week
  Austin (AUS) 0 - 0 0

Airlines & Planes

Top Airlines
Airline Flights
per Day
Seats
per Day
Jet Linx Aviation 0 -
Top Plane Types
Model Flights Seats
Cessna C56X 0.0/day - 0